createdAt,value
2016-05-31T00:00:50.721Z,22.48
2016-05-31T00:01:50.786Z,22.51
2016-05-31T00:02:50.836Z,22.54
2016-05-31T00:03:50.744Z,22.47
2016-05-31T00:04:50.763Z,22.53
2016-05-31T00:05:51.000Z,22.51
2016-05-31T00:06:51.049Z,22.5
2016-05-31T00:07:51.068Z,22.55
2016-05-31T00:08:51.149Z,22.57
2016-05-31T00:09:51.214Z,22.55
2016-05-31T00:10:51.248Z,22.63
2016-05-31T00:11:51.313Z,22.54
2016-05-31T00:12:51.331Z,22.54
2016-05-31T00:13:51.396Z,22.57
2016-05-31T00:14:51.493Z,22.51
2016-05-31T00:15:51.512Z,22.48
2016-05-31T00:16:51.404Z,22.47
2016-05-31T00:17:51.484Z,22.51
2016-05-31T00:18:51.707Z,22.51
2016-05-31T00:19:51.585Z,22.55
2016-05-31T00:20:51.806Z,22.51
2016-05-31T00:21:51.870Z,22.48
2016-05-31T00:22:52.201Z,22.65
2016-05-31T00:23:51.813Z,22.55
2016-05-31T00:24:51.989Z,22.54
2016-05-31T00:25:52.069Z,22.51
2016-05-31T00:26:51.962Z,22.5
2016-05-31T00:27:51.980Z,22.55
2016-05-31T00:28:52.218Z,22.57
2016-05-31T00:29:52.095Z,22.54
2016-05-31T00:30:52.317Z,22.5
2016-05-31T00:31:52.397Z,22.54
2016-05-31T00:32:52.432Z,22.53
2016-05-31T00:33:52.310Z,22.53
2016-05-31T00:34:52.547Z,22.48
2016-05-31T00:35:52.596Z,22.57
2016-05-31T00:36:52.489Z,22.5
2016-05-31T00:37:53.116Z,22.57
2016-05-31T00:38:52.730Z,22.54
2016-05-31T00:39:52.810Z,22.51
2016-05-31T00:40:52.874Z,22.55
2016-05-31T00:41:52.893Z,22.6
2016-05-31T00:42:52.802Z,22.48
2016-05-31T00:43:53.024Z,22.54
2016-05-31T00:44:52.901Z,22.53
2016-05-31T00:45:53.107Z,22.59
2016-05-31T00:46:53.173Z,22.55
2016-05-31T00:47:53.066Z,22.53
2016-05-31T00:48:53.101Z,22.55
2016-05-31T00:49:53.353Z,22.57
2016-05-31T00:50:53.386Z,22.57
2016-05-31T00:51:53.452Z,22.54
2016-05-31T00:52:53.329Z,22.54
2016-05-31T00:53:53.535Z,22.55
2016-05-31T00:54:53.616Z,22.68
2016-05-31T00:55:53.650Z,22.53
2016-05-31T00:56:53.700Z,22.59
2016-05-31T00:57:53.624Z,22.53
2016-05-31T00:58:53.877Z,22.51
2016-05-31T00:59:53.848Z,22.55
2016-05-31T01:00:53.960Z,22.63
2016-05-31T01:01:53.994Z,22.55
2016-05-31T01:02:54.044Z,22.54
2016-05-31T01:03:54.062Z,22.55
2016-05-31T01:04:54.127Z,22.55
2016-05-31T01:05:54.192Z,22.6
2016-05-31T01:06:54.086Z,22.59
2016-05-31T01:07:54.791Z,22.51
2016-05-31T01:08:54.357Z,22.55
2016-05-31T01:09:54.407Z,22.59
2016-05-31T01:10:54.440Z,22.51
2016-05-31T01:11:54.521Z,22.59
2016-05-31T01:12:54.571Z,22.55
2016-05-31T01:13:54.604Z,22.63
2016-05-31T01:14:54.670Z,22.59
2016-05-31T01:15:54.735Z,22.57
2016-05-31T01:16:54.753Z,22.6
2016-05-31T01:17:54.803Z,22.54
2016-05-31T01:18:54.899Z,22.6
2016-05-31T01:19:54.933Z,22.55
2016-05-31T01:20:54.826Z,22.53
2016-05-31T01:21:54.892Z,22.51
2016-05-31T01:22:54.956Z,22.6
2016-05-31T01:23:55.210Z,22.6
2016-05-31T01:24:55.228Z,22.59
2016-05-31T01:25:55.481Z,22.54
2016-05-31T01:26:55.295Z,22.55
2016-05-31T01:27:55.220Z,22.54
2016-05-31T01:28:55.411Z,22.59
2016-05-31T01:29:55.507Z,22.6
2016-05-31T01:30:55.525Z,22.57
2016-05-31T01:31:55.559Z,22.55
2016-05-31T01:32:55.639Z,22.59
2016-05-31T01:33:55.675Z,22.59
2016-05-31T01:34:55.724Z,22.55
2016-05-31T01:35:55.491Z,22.51
2016-05-31T01:36:55.855Z,22.63
2016-05-31T01:37:56.263Z,22.59
2016-05-31T01:38:55.953Z,22.53
2016-05-31T01:39:56.018Z,22.53
2016-05-31T01:40:55.880Z,22.53
2016-05-31T01:41:56.101Z,22.57
2016-05-31T01:42:56.151Z,22.63
2016-05-31T01:43:56.232Z,22.62
2016-05-31T01:44:56.282Z,22.55
2016-05-31T01:45:56.315Z,22.59
2016-05-31T01:46:56.396Z,22.54
2016-05-31T01:47:56.446Z,22.55
2016-05-31T01:48:56.465Z,22.55
2016-05-31T01:49:56.545Z,22.54
2016-05-31T01:50:56.610Z,22.55
2016-05-31T01:51:56.613Z,22.53
2016-05-31T01:52:56.912Z,22.57
2016-05-31T01:53:56.743Z,22.53
2016-05-31T01:54:56.824Z,22.55
2016-05-31T01:55:56.874Z,22.59
2016-05-31T01:56:56.736Z,22.54
2016-05-31T01:57:56.957Z,22.54
2016-05-31T01:58:57.084Z,22.55
2016-05-31T01:59:57.072Z,22.55
2016-05-31T02:00:57.106Z,22.55
2016-05-31T02:01:57.203Z,22.59
2016-05-31T02:02:57.236Z,22.59
2016-05-31T02:03:57.270Z,22.59
2016-05-31T02:04:57.366Z,22.53
2016-05-31T02:05:57.417Z,22.54
2016-05-31T02:06:57.435Z,22.57
2016-05-31T02:07:57.796Z,22.57
2016-05-31T02:08:57.533Z,22.57
2016-05-31T02:09:57.630Z,22.54
2016-05-31T02:10:57.664Z,22.55
2016-05-31T02:11:57.699Z,22.55
2016-05-31T02:12:57.763Z,22.54
2016-05-31T02:13:57.813Z,22.59
2016-05-31T02:14:57.878Z,22.54
2016-05-31T02:15:57.912Z,22.6
2016-05-31T02:16:57.962Z,22.62
2016-05-31T02:17:58.058Z,22.53
2016-05-31T02:18:58.108Z,22.54
2016-05-31T02:19:58.001Z,22.62
2016-05-31T02:20:58.191Z,22.54
2016-05-31T02:21:58.240Z,22.62
2016-05-31T02:22:58.165Z,22.55
2016-05-31T02:23:58.184Z,22.63
2016-05-31T02:24:58.405Z,22.62
2016-05-31T02:25:58.330Z,22.55
2016-05-31T02:26:58.520Z,22.57
2016-05-31T02:27:58.554Z,22.57
2016-05-31T02:28:58.479Z,22.6
2016-05-31T02:29:58.668Z,22.54
2016-05-31T02:30:58.578Z,22.54
2016-05-31T02:31:58.642Z,22.59
2016-05-31T02:32:58.848Z,22.6
2016-05-31T02:33:58.883Z,22.54
2016-05-31T02:34:58.917Z,22.54
2016-05-31T02:35:58.981Z,22.53
2016-05-31T02:36:59.047Z,22.55
2016-05-31T02:37:59.580Z,22.55
2016-05-31T02:38:58.974Z,22.59
2016-05-31T02:39:59.070Z,22.54
2016-05-31T02:40:59.260Z,22.55
2016-05-31T02:41:59.310Z,22.6
2016-05-31T02:42:59.219Z,22.59
2016-05-31T02:43:59.425Z,22.54
2016-05-31T02:44:59.302Z,22.59
2016-05-31T02:45:59.383Z,22.53
2016-05-31T02:46:59.573Z,22.57
2016-05-31T02:47:59.654Z,22.51
2016-05-31T02:48:59.704Z,22.57
2016-05-31T02:49:59.754Z,22.59
2016-05-31T02:50:59.819Z,22.62
2016-05-31T02:51:59.712Z,22.51
2016-05-31T02:53:00.402Z,22.59
2016-05-31T02:53:59.951Z,22.54
2016-05-31T02:55:00.032Z,22.6
2016-05-31T02:56:00.082Z,22.59
2016-05-31T02:57:00.116Z,22.6
2016-05-31T02:58:00.040Z,22.54
2016-05-31T02:59:00.293Z,22.55
2016-05-31T03:00:00.280Z,22.6
2016-05-31T03:01:00.346Z,22.63
2016-05-31T03:02:00.395Z,22.54
2016-05-31T03:03:00.429Z,22.55
2016-05-31T03:04:00.509Z,22.54
2016-05-31T03:05:00.559Z,22.59
2016-05-31T03:06:00.609Z,22.57
2016-05-31T03:07:00.658Z,22.51
2016-05-31T03:08:00.740Z,22.57
2016-05-31T03:09:00.758Z,22.62
2016-05-31T03:10:00.823Z,22.57
2016-05-31T03:11:00.716Z,22.57
2016-05-31T03:12:00.937Z,22.54
2016-05-31T03:13:00.988Z,22.62
2016-05-31T03:14:01.021Z,22.6
2016-05-31T03:15:01.086Z,22.57
2016-05-31T03:16:01.152Z,22.54
2016-05-31T03:17:01.201Z,22.57
2016-05-31T03:18:01.235Z,22.54
2016-05-31T03:19:01.300Z,22.53
2016-05-31T03:20:01.349Z,22.57
2016-05-31T03:21:01.399Z,22.54
2016-05-31T03:22:01.480Z,22.6
2016-05-31T03:23:01.374Z,22.54
2016-05-31T03:24:01.579Z,22.6
2016-05-31T03:25:01.457Z,22.54
2016-05-31T03:26:01.663Z,22.59
2016-05-31T03:27:01.743Z,22.55
2016-05-31T03:28:01.777Z,22.55
2016-05-31T03:29:01.827Z,22.51
2016-05-31T03:30:01.892Z,22.6
2016-05-31T03:31:01.957Z,22.53
2016-05-31T03:32:02.007Z,22.51
2016-05-31T03:33:02.072Z,22.53
2016-05-31T03:34:02.122Z,22.59
2016-05-31T03:35:02.156Z,22.59
2016-05-31T03:36:02.221Z,22.54
2016-05-31T03:37:02.255Z,22.6
2016-05-31T03:38:02.555Z,22.48
2016-05-31T03:39:02.198Z,22.54
2016-05-31T03:40:02.419Z,22.54
2016-05-31T03:41:02.484Z,22.54
2016-05-31T03:42:02.533Z,22.54
2016-05-31T03:43:02.568Z,22.53
2016-05-31T03:44:02.633Z,22.59
2016-05-31T03:45:02.682Z,22.62
2016-05-31T03:46:02.748Z,22.59
2016-05-31T03:47:02.797Z,22.55
2016-05-31T03:48:02.690Z,22.5
2016-05-31T03:49:02.881Z,22.53
2016-05-31T03:50:02.790Z,22.59
2016-05-31T03:51:02.823Z,22.57
2016-05-31T03:52:03.061Z,22.53
2016-05-31T03:53:03.126Z,22.54
2016-05-31T03:54:03.160Z,22.59
2016-05-31T03:55:03.210Z,22.53
2016-05-31T03:56:03.118Z,22.62
2016-05-31T03:57:03.309Z,22.59
2016-05-31T03:58:03.359Z,22.54
2016-05-31T03:59:03.486Z,22.53
2016-05-31T04:00:03.473Z,22.57
2016-05-31T04:01:03.522Z,22.57
2016-05-31T04:02:03.588Z,22.54
2016-05-31T04:03:03.653Z,22.55
2016-05-31T04:04:03.702Z,22.57
2016-05-31T04:05:03.737Z,22.53
2016-05-31T04:06:03.801Z,22.6
2016-05-31T04:07:03.850Z,22.55
2016-05-31T04:08:03.916Z,22.55
2016-05-31T04:09:03.951Z,22.59
2016-05-31T04:10:04.016Z,22.53
2016-05-31T04:11:04.049Z,22.57
2016-05-31T04:12:04.115Z,22.57
2016-05-31T04:13:04.180Z,22.55
2016-05-31T04:14:04.057Z,22.54
2016-05-31T04:15:04.122Z,22.55
2016-05-31T04:16:04.328Z,22.55
2016-05-31T04:17:04.222Z,22.55
2016-05-31T04:18:04.443Z,22.55
2016-05-31T04:19:04.477Z,22.53
2016-05-31T04:20:04.543Z,22.55
2016-05-31T04:21:04.591Z,22.55
2016-05-31T04:22:04.501Z,22.57
2016-05-31T04:23:04.597Z,22.57
2016-05-31T04:24:04.772Z,22.57
2016-05-31T04:25:04.821Z,22.54
2016-05-31T04:26:04.715Z,22.51
2016-05-31T04:27:04.780Z,22.59
2016-05-31T04:28:04.970Z,22.48
2016-05-31T04:29:05.034Z,22.6
2016-05-31T04:30:05.084Z,22.51
2016-05-31T04:31:05.151Z,22.5
2016-05-31T04:32:05.028Z,22.53
2016-05-31T04:33:05.248Z,22.53
2016-05-31T04:34:05.284Z,22.55
2016-05-31T04:35:05.333Z,22.55
2016-05-31T04:36:05.241Z,22.55
2016-05-31T04:37:05.448Z,22.57
2016-05-31T04:38:06.341Z,22.53
2016-05-31T04:39:05.578Z,22.57
2016-05-31T04:40:05.611Z,22.53
2016-05-31T04:41:05.646Z,22.55
2016-05-31T04:42:05.727Z,22.6
2016-05-31T04:43:05.775Z,22.55
2016-05-31T04:44:05.825Z,22.57
2016-05-31T04:45:05.891Z,22.57
2016-05-31T04:46:05.925Z,22.54
2016-05-31T04:47:05.990Z,22.63
2016-05-31T04:48:06.055Z,22.59
2016-05-31T04:49:05.964Z,22.6
2016-05-31T04:50:06.154Z,22.54
2016-05-31T04:51:06.204Z,22.63
2016-05-31T04:52:06.254Z,22.57
2016-05-31T04:53:06.491Z,22.54
2016-05-31T04:54:06.212Z,22.55
2016-05-31T04:55:06.262Z,22.63
2016-05-31T04:56:06.482Z,22.53
2016-05-31T04:57:06.532Z,22.59
2016-05-31T04:58:06.566Z,22.66
2016-05-31T04:59:06.506Z,22.57
2016-05-31T05:00:06.697Z,22.55
2016-05-31T05:01:06.731Z,22.6
2016-05-31T05:02:06.780Z,22.59
2016-05-31T05:03:06.674Z,22.62
2016-05-31T05:04:06.911Z,22.62
2016-05-31T05:05:06.945Z,22.6
2016-05-31T05:06:07.009Z,22.59
2016-05-31T05:07:07.045Z,22.53
2016-05-31T05:08:07.390Z,22.63
2016-05-31T05:09:06.986Z,22.62
2016-05-31T05:10:07.208Z,22.57
2016-05-31T05:11:07.272Z,22.63
2016-05-31T05:12:07.323Z,22.66
2016-05-31T05:13:07.372Z,22.6
2016-05-31T05:14:07.297Z,22.6
2016-05-31T05:15:07.519Z,22.66
2016-05-31T05:16:07.536Z,22.63
2016-05-31T05:17:07.586Z,22.6
2016-05-31T05:18:07.635Z,22.63
2016-05-31T05:19:07.717Z,22.66
2016-05-31T05:20:07.735Z,22.66
2016-05-31T05:21:07.800Z,22.62
2016-05-31T05:22:07.709Z,22.6
2016-05-31T05:23:08.290Z,22.62
2016-05-31T05:24:07.949Z,22.54
2016-05-31T05:25:08.013Z,22.63
2016-05-31T05:26:08.063Z,22.6
2016-05-31T05:27:08.113Z,22.6
2016-05-31T05:28:08.194Z,22.59
2016-05-31T05:29:08.087Z,22.55
2016-05-31T05:30:08.137Z,22.63
2016-05-31T05:31:08.359Z,22.6
2016-05-31T05:32:08.376Z,22.6
2016-05-31T05:33:08.457Z,22.57
2016-05-31T05:34:08.492Z,22.59
2016-05-31T05:35:08.557Z,22.55
2016-05-31T05:36:08.606Z,22.53
2016-05-31T05:37:08.656Z,22.6
2016-05-31T05:38:08.564Z,22.6
2016-05-31T05:39:08.645Z,22.48
2016-05-31T05:40:08.679Z,22.59
2016-05-31T05:41:08.869Z,22.51
2016-05-31T05:42:08.920Z,22.54
2016-05-31T05:43:08.859Z,22.44
2016-05-31T05:44:08.878Z,22.36
2016-05-31T05:45:09.099Z,22.36
2016-05-31T05:46:09.117Z,22.28
2016-05-31T05:47:09.027Z,22.28
2016-05-31T05:48:09.091Z,22.22
2016-05-31T05:49:09.125Z,22.29
2016-05-31T05:50:09.190Z,22.17
2016-05-31T05:51:09.256Z,22.23
2016-05-31T05:52:09.305Z,22.22
2016-05-31T05:53:09.401Z,22.17
2016-05-31T05:54:09.592Z,22.15
2016-05-31T05:55:09.610Z,22.11
2016-05-31T05:56:09.519Z,22.14
2016-05-31T05:57:09.749Z,22.08
2016-05-31T05:58:09.654Z,22.08
2016-05-31T05:59:09.949Z,22.1
2016-05-31T06:00:09.962Z,22.08
2016-05-31T06:01:10.038Z,22.02
2016-05-31T06:02:10.124Z,21.93
2016-05-31T06:03:10.215Z,22
2016-05-31T06:04:10.242Z,22
2016-05-31T06:05:10.318Z,21.95
2016-05-31T06:06:10.236Z,21.98
2016-05-31T06:07:10.433Z,21.88
2016-05-31T06:08:10.361Z,21.82
2016-05-31T06:09:10.556Z,21.88
2016-05-31T06:10:10.437Z,21.79
2016-05-31T06:11:10.505Z,21.83
2016-05-31T06:12:10.698Z,21.76
2016-05-31T06:13:10.795Z,21.8
2016-05-31T06:14:10.815Z,21.82
2016-05-31T06:15:10.725Z,21.73
2016-05-31T06:16:10.947Z,21.73
2016-05-31T06:17:10.998Z,21.7
2016-05-31T06:18:11.032Z,21.73
2016-05-31T06:19:11.098Z,21.66
2016-05-31T06:20:11.163Z,21.62
2016-05-31T06:21:11.213Z,21.61
2016-05-31T06:22:11.123Z,21.57
2016-05-31T06:23:11.782Z,21.54
2016-05-31T06:24:11.190Z,21.55
2016-05-31T06:25:11.397Z,21.6
2016-05-31T06:26:11.477Z,21.58
2016-05-31T06:27:11.386Z,21.58
2016-05-31T06:28:11.576Z,21.58
2016-05-31T06:29:11.626Z,21.54
2016-05-31T06:30:11.535Z,21.54
2016-05-31T06:31:11.725Z,21.6
2016-05-31T06:32:11.790Z,21.57
2016-05-31T06:33:11.855Z,21.61
2016-05-31T06:34:11.890Z,21.72
2016-05-31T06:35:11.923Z,21.69
2016-05-31T06:36:11.989Z,21.73
2016-05-31T06:37:12.053Z,21.79
2016-05-31T06:38:12.120Z,21.7
2016-05-31T06:39:12.137Z,21.77
2016-05-31T06:40:12.233Z,21.77
2016-05-31T06:41:12.267Z,21.85
2016-05-31T06:42:12.333Z,21.79
2016-05-31T06:43:12.367Z,21.79
2016-05-31T06:44:12.431Z,21.88
2016-05-31T06:45:12.466Z,21.83
2016-05-31T06:46:12.374Z,21.89
2016-05-31T06:47:12.425Z,21.92
2016-05-31T06:48:12.614Z,21.98
2016-05-31T06:49:12.695Z,21.95
2016-05-31T06:50:12.714Z,21.91
2016-05-31T06:51:12.794Z,21.88
2016-05-31T06:52:12.844Z,21.88
2016-05-31T06:53:12.893Z,21.93
2016-05-31T06:54:12.943Z,21.93
2016-05-31T06:55:12.993Z,21.92
2016-05-31T06:56:13.027Z,21.93
2016-05-31T06:57:13.091Z,21.92
2016-05-31T06:58:13.157Z,22
2016-05-31T06:59:13.254Z,21.95
2016-05-31T07:00:13.257Z,21.99
2016-05-31T07:01:13.321Z,21.95
2016-05-31T07:02:13.184Z,21.93
2016-05-31T07:03:13.436Z,21.96
2016-05-31T07:04:13.470Z,21.98
2016-05-31T07:05:13.363Z,21.92
2016-05-31T07:06:13.428Z,21.95
2016-05-31T07:07:13.618Z,22
2016-05-31T07:08:13.871Z,22.02
2016-05-31T07:09:13.749Z,22.06
2016-05-31T07:10:13.814Z,21.99
2016-05-31T07:11:13.676Z,21.98
2016-05-31T07:12:13.897Z,21.95
2016-05-31T07:13:13.964Z,21.96
2016-05-31T07:14:13.981Z,21.99
2016-05-31T07:15:14.062Z,22.02
2016-05-31T07:16:14.096Z,22.04
2016-05-31T07:17:14.161Z,22.07
2016-05-31T07:18:14.210Z,22.1
2016-05-31T07:19:14.292Z,21.98
2016-05-31T07:20:14.341Z,21.98
2016-05-31T07:21:14.391Z,22.14
2016-05-31T07:22:14.424Z,22.14
2016-05-31T07:23:14.678Z,22.13
2016-05-31T07:24:14.555Z,22.15
2016-05-31T07:25:14.573Z,22.22
2016-05-31T07:26:14.654Z,22.02
2016-05-31T07:27:14.672Z,22.04
2016-05-31T07:28:14.738Z,22.13
2016-05-31T07:29:14.646Z,22.15
2016-05-31T07:30:14.837Z,22.1
2016-05-31T07:31:14.887Z,22.13
2016-05-31T07:32:14.968Z,22.18
2016-05-31T07:33:15.032Z,22.18
2016-05-31T07:34:15.051Z,22.15
2016-05-31T07:35:15.115Z,22.15
2016-05-31T07:36:15.165Z,22.2
2016-05-31T07:37:15.215Z,22.15
2016-05-31T07:38:15.140Z,22.13
2016-05-31T07:39:15.329Z,22.22
2016-05-31T07:40:15.395Z,22.18
2016-05-31T07:41:15.429Z,22.26
2016-05-31T07:42:15.478Z,22.13
2016-05-31T07:43:15.544Z,22.17
2016-05-31T07:44:15.592Z,22.15
2016-05-31T07:45:15.643Z,22.15
2016-05-31T07:46:15.724Z,22.18
2016-05-31T07:47:15.773Z,22.18
2016-05-31T07:48:15.650Z,22.13
2016-05-31T07:49:15.888Z,22.13
2016-05-31T07:50:15.922Z,22.08
2016-05-31T07:51:16.019Z,22.06
2016-05-31T07:52:15.864Z,22.08
2016-05-31T07:53:16.086Z,22
2016-05-31T07:54:16.135Z,22.11
2016-05-31T07:55:16.155Z,22
2016-05-31T07:56:16.063Z,22.11
2016-05-31T07:57:16.285Z,22.18
2016-05-31T07:58:16.334Z,22.06
2016-05-31T07:59:16.415Z,22.11
2016-05-31T08:00:16.480Z,22.08
2016-05-31T08:01:16.343Z,22.1
2016-05-31T08:02:16.548Z,22.1
2016-05-31T08:03:16.612Z,22.13
2016-05-31T08:04:16.710Z,22.1
2016-05-31T08:05:16.385Z,22.15
2016-05-31T08:06:16.590Z,22.14
2016-05-31T08:07:16.811Z,22.1
2016-05-31T08:08:16.861Z,22.14
2016-05-31T08:09:16.753Z,21.99
2016-05-31T08:10:16.992Z,22.07
2016-05-31T08:11:17.026Z,22.11
2016-05-31T08:12:17.090Z,22.15
2016-05-31T08:13:17.139Z,22.17
2016-05-31T08:14:17.190Z,22.08
2016-05-31T08:15:17.067Z,22.15
2016-05-31T08:16:17.289Z,22.04
2016-05-31T08:17:17.353Z,22.08
2016-05-31T08:18:17.403Z,22.11
2016-05-31T08:19:17.421Z,22.02
2016-05-31T08:20:17.189Z,22.08
2016-05-31T08:21:17.411Z,22.08
2016-05-31T08:22:17.602Z,22.02
2016-05-31T08:23:18.026Z,22
2016-05-31T08:24:17.732Z,22.06
2016-05-31T08:25:17.766Z,21.98
2016-05-31T08:26:17.831Z,22.07
2016-05-31T08:27:17.927Z,22.11
2016-05-31T08:28:17.961Z,22.08
2016-05-31T08:29:18.010Z,22.02
2016-05-31T08:30:18.046Z,22.13
2016-05-31T08:31:17.923Z,22.08
2016-05-31T08:32:18.160Z,22.15
2016-05-31T08:33:18.193Z,22.18
2016-05-31T08:34:18.087Z,22.17
2016-05-31T08:35:18.309Z,22.11
2016-05-31T08:36:18.373Z,22.15
2016-05-31T08:37:18.408Z,22.15
2016-05-31T08:38:18.895Z,22.15
2016-05-31T08:39:18.507Z,22.15
2016-05-31T08:40:18.556Z,22.18
2016-05-31T08:41:18.606Z,22.08
2016-05-31T08:42:18.671Z,22.18
2016-05-31T08:43:18.705Z,22.07
2016-05-31T08:44:18.629Z,22.07
2016-05-31T08:45:18.820Z,22.11
2016-05-31T08:46:18.869Z,22.14
2016-05-31T08:47:18.934Z,22.13
2016-05-31T08:48:18.828Z,22
2016-05-31T08:49:19.128Z,22.11
2016-05-31T08:50:19.114Z,22.07
2016-05-31T08:51:19.148Z,22.14
2016-05-31T08:52:19.041Z,22.07
2016-05-31T08:53:19.919Z,22.11
2016-05-31T08:54:19.328Z,22.06
2016-05-31T08:55:19.347Z,21.96
2016-05-31T08:56:19.443Z,22
2016-05-31T08:57:19.461Z,22.07
2016-05-31T08:58:19.511Z,21.95
2016-05-31T08:59:19.638Z,22.04
2016-05-31T09:00:19.641Z,22.13
2016-05-31T09:01:19.675Z,22.04
2016-05-31T09:02:19.568Z,22.06
2016-05-31T09:03:19.805Z,21.99
2016-05-31T09:04:19.668Z,22.06
2016-05-31T09:05:19.732Z,22
2016-05-31T09:06:19.938Z,22.07
2016-05-31T09:07:19.832Z,21.96
2016-05-31T09:08:20.429Z,22.06
2016-05-31T09:09:20.134Z,21.98
2016-05-31T09:10:20.137Z,21.92
2016-05-31T09:11:20.217Z,21.99
2016-05-31T09:12:20.111Z,21.95
2016-05-31T09:13:20.317Z,22.02
2016-05-31T09:14:20.382Z,22.06
2016-05-31T09:15:20.416Z,22.02
2016-05-31T09:16:20.481Z,22.02
2016-05-31T09:17:20.530Z,21.93
2016-05-31T09:18:20.596Z,22.02
2016-05-31T09:19:20.614Z,22.06
2016-05-31T09:20:20.695Z,21.98
2016-05-31T09:21:20.744Z,22
2016-05-31T09:22:20.779Z,21.99
2016-05-31T09:23:21.030Z,21.96
2016-05-31T09:24:20.894Z,22.02
2016-05-31T09:25:20.974Z,21.92
2016-05-31T09:26:21.024Z,22
2016-05-31T09:27:20.776Z,21.99
2016-05-31T09:28:21.123Z,21.95
2016-05-31T09:29:21.157Z,21.99
2016-05-31T09:30:21.050Z,22.02
2016-05-31T09:31:21.146Z,21.95
2016-05-31T09:32:21.181Z,21.93
2016-05-31T09:33:21.214Z,21.93
2016-05-31T09:34:21.421Z,21.91
2016-05-31T09:35:21.501Z,21.99
2016-05-31T09:36:21.534Z,22.02
2016-05-31T09:37:21.585Z,21.88
2016-05-31T09:38:21.666Z,21.89
2016-05-31T09:39:21.559Z,21.92
2016-05-31T09:40:21.827Z,22.02
2016-05-31T09:41:21.642Z,22.06
2016-05-31T09:42:21.848Z,21.92
2016-05-31T09:43:21.928Z,21.96
2016-05-31T09:44:21.947Z,22
2016-05-31T09:45:21.997Z,21.98
2016-05-31T09:46:21.921Z,21.95
2016-05-31T09:47:22.095Z,21.99
2016-05-31T09:48:22.161Z,22.02
2016-05-31T09:49:22.242Z,22.06
2016-05-31T09:50:22.136Z,22.02
2016-05-31T09:51:22.184Z,22.06
2016-05-31T09:52:22.375Z,22
2016-05-31T09:53:22.455Z,22.07
2016-05-31T09:54:22.317Z,21.96
2016-05-31T09:55:22.555Z,22.06
2016-05-31T09:56:22.589Z,22.02
2016-05-31T09:57:22.654Z,21.98
2016-05-31T09:58:22.688Z,22.06
2016-05-31T09:59:22.815Z,22.04
2016-05-31T10:00:22.834Z,22.02
2016-05-31T10:01:22.868Z,22
2016-05-31T10:02:22.902Z,22.02
2016-05-31T10:03:22.966Z,22.06
2016-05-31T10:04:22.876Z,22.02
2016-05-31T10:05:22.909Z,22
2016-05-31T10:06:23.116Z,22.04
2016-05-31T10:07:23.259Z,21.98
2016-05-31T10:08:23.074Z,21.98
2016-05-31T10:09:23.279Z,22.04
2016-05-31T10:10:23.330Z,22
2016-05-31T10:11:23.363Z,22.02
2016-05-31T10:12:23.429Z,21.96
2016-05-31T10:13:23.509Z,22
2016-05-31T10:14:23.559Z,21.92
2016-05-31T10:15:23.608Z,21.95
2016-05-31T10:16:23.643Z,21.98
2016-05-31T10:17:23.708Z,22
2016-05-31T10:18:23.757Z,21.92
2016-05-31T10:19:23.650Z,21.93
2016-05-31T10:20:23.857Z,21.96
2016-05-31T10:21:23.922Z,21.99
2016-05-31T10:22:23.986Z,21.98
2016-05-31T10:23:24.021Z,21.98
2016-05-31T10:24:24.086Z,21.96
2016-05-31T10:25:24.135Z,21.98
2016-05-31T10:26:24.200Z,22.04
2016-05-31T10:27:24.266Z,22.02
2016-05-31T10:28:24.284Z,21.99
2016-05-31T10:29:24.349Z,21.95
2016-05-31T10:30:24.258Z,22
2016-05-31T10:31:24.449Z,21.99
2016-05-31T10:32:24.513Z,22.06
2016-05-31T10:33:24.547Z,21.96
2016-05-31T10:34:24.597Z,22
2016-05-31T10:35:24.631Z,22.02
2016-05-31T10:36:24.727Z,22.04
2016-05-31T10:37:24.762Z,22.04
2016-05-31T10:38:24.811Z,22.02
2016-05-31T10:39:24.860Z,22.06
2016-05-31T10:40:24.785Z,21.96
2016-05-31T10:41:24.976Z,22.02
2016-05-31T10:42:25.009Z,22.07
2016-05-31T10:43:25.106Z,22.08
2016-05-31T10:44:25.140Z,22.08
2016-05-31T10:45:25.204Z,22.02
2016-05-31T10:46:25.239Z,22
2016-05-31T10:47:25.304Z,22
2016-05-31T10:48:25.181Z,22.02
2016-05-31T10:49:25.482Z,22.04
2016-05-31T10:50:25.453Z,22.02
2016-05-31T10:51:25.362Z,22.02
2016-05-31T10:52:25.567Z,22
2016-05-31T10:53:26.460Z,21.98
2016-05-31T10:54:25.651Z,22.06
2016-05-31T10:55:25.731Z,22.02
2016-05-31T10:56:25.766Z,22
2016-05-31T10:57:25.816Z,22.08
2016-05-31T10:58:25.880Z,21.99
2016-05-31T10:59:25.977Z,21.95
2016-05-31T11:00:25.995Z,22
2016-05-31T11:01:26.044Z,22
2016-05-31T11:02:26.094Z,22.06
2016-05-31T11:03:26.144Z,22
2016-05-31T11:04:26.193Z,22.06
2016-05-31T11:05:26.243Z,21.98
2016-05-31T11:06:26.308Z,21.98
2016-05-31T11:07:26.967Z,22.06
2016-05-31T11:08:26.892Z,22.04
2016-05-31T11:09:26.473Z,21.96
2016-05-31T11:10:26.521Z,22.04
2016-05-31T11:11:26.571Z,22.06
2016-05-31T11:12:26.621Z,21.98
2016-05-31T11:13:26.686Z,21.99
2016-05-31T11:14:26.705Z,22.02
2016-05-31T11:15:26.629Z,22.08
2016-05-31T11:16:26.835Z,21.96
2016-05-31T11:17:26.729Z,21.96
2016-05-31T11:18:26.934Z,21.98
2016-05-31T11:19:26.984Z,21.99
2016-05-31T11:20:27.064Z,22
2016-05-31T11:21:27.083Z,22.06
2016-05-31T11:22:27.148Z,22.06
2016-05-31T11:23:27.198Z,21.99
2016-05-31T11:24:27.263Z,22.06
2016-05-31T11:25:27.297Z,21.99
2016-05-31T11:26:27.206Z,22.06
2016-05-31T11:27:27.411Z,22.02
2016-05-31T11:28:27.445Z,21.98
2016-05-31T11:29:27.355Z,22.02
2016-05-31T11:30:27.575Z,21.98
2016-05-31T11:31:27.657Z,21.99
2016-05-31T11:32:27.674Z,21.96
2016-05-31T11:33:27.756Z,21.98
2016-05-31T11:34:27.805Z,22.06
2016-05-31T11:35:27.839Z,22
2016-05-31T11:36:27.888Z,21.98
2016-05-31T11:37:27.954Z,22.02
2016-05-31T11:38:28.284Z,21.99
2016-05-31T11:39:28.037Z,21.98
2016-05-31T11:40:28.103Z,22
2016-05-31T11:41:27.980Z,22.06
2016-05-31T11:42:28.201Z,22.08
2016-05-31T11:43:28.252Z,22.13
2016-05-31T11:44:28.332Z,22.04
2016-05-31T11:45:28.210Z,22.04
2016-05-31T11:46:28.432Z,22.07
2016-05-31T11:47:28.325Z,22.08
2016-05-31T11:48:28.545Z,21.96
2016-05-31T11:49:28.580Z,22
2016-05-31T11:50:28.645Z,21.95
2016-05-31T11:51:28.679Z,21.95
2016-05-31T11:52:28.729Z,21.96
2016-05-31T11:53:28.637Z,22.07
2016-05-31T11:54:28.859Z,21.99
2016-05-31T11:55:28.892Z,22.07
2016-05-31T11:56:28.974Z,22.02
2016-05-31T11:57:29.008Z,22.08
2016-05-31T11:58:29.058Z,22.08
2016-05-31T11:59:29.185Z,22.06
2016-05-31T12:00:29.156Z,22.06
2016-05-31T12:01:29.221Z,22.08
2016-05-31T12:02:29.271Z,22.04
2016-05-31T12:03:29.165Z,22.06
2016-05-31T12:04:29.371Z,22.07
2016-05-31T12:05:29.436Z,22.08
2016-05-31T12:06:29.485Z,22.04
2016-05-31T12:07:29.518Z,22.06
2016-05-31T12:08:29.600Z,22.06
2016-05-31T12:09:29.619Z,22.07
2016-05-31T12:10:29.699Z,22.04
2016-05-31T12:11:29.577Z,22.13
2016-05-31T12:12:29.813Z,22.06
2016-05-31T12:13:29.863Z,22.1
2016-05-31T12:14:29.616Z,22.11
2016-05-31T12:15:29.946Z,21.99
2016-05-31T12:16:30.028Z,22.04
2016-05-31T12:17:30.077Z,22.1
2016-05-31T12:18:30.126Z,21.95
2016-05-31T12:19:30.161Z,22.1
2016-05-31T12:20:30.070Z,22.08
2016-05-31T12:21:30.276Z,22.1
2016-05-31T12:22:30.341Z,22.1
2016-05-31T12:23:31.250Z,22.08
2016-05-31T12:24:30.439Z,22.13
2016-05-31T12:25:30.489Z,22.08
2016-05-31T12:26:30.555Z,22.08
2016-05-31T12:27:30.573Z,22.11
2016-05-31T12:28:30.653Z,22
2016-05-31T12:29:30.688Z,22.1
2016-05-31T12:30:30.581Z,22.17
2016-05-31T12:31:30.661Z,22.1
2016-05-31T12:32:30.696Z,22.13
2016-05-31T12:33:30.901Z,22.17
2016-05-31T12:34:30.826Z,22.04
2016-05-31T12:35:31.016Z,21.98
2016-05-31T12:36:31.082Z,22.15
2016-05-31T12:37:31.381Z,22.08
2016-05-31T12:38:31.040Z,22.08
2016-05-31T12:39:31.246Z,22
2016-05-31T12:40:31.279Z,22.1
2016-05-31T12:41:31.157Z,22
2016-05-31T12:42:31.394Z,21.98
2016-05-31T12:43:31.319Z,22.04
2016-05-31T12:44:31.478Z,22
2016-05-31T12:45:31.559Z,22.15
2016-05-31T12:46:31.436Z,22.14
2016-05-31T12:47:31.673Z,22.07
2016-05-31T12:48:31.708Z,22.13
2016-05-31T12:49:31.757Z,22.04
2016-05-31T12:50:31.807Z,22.18
2016-05-31T12:51:31.872Z,22.17
2016-05-31T12:52:32.156Z,22.15
2016-05-31T12:53:32.517Z,22.1
2016-05-31T12:54:32.020Z,22.14
2016-05-31T12:55:32.070Z,22.2
2016-05-31T12:56:32.151Z,22.18
2016-05-31T12:57:32.231Z,22.15
2016-05-31T12:58:32.234Z,22.04
2016-05-31T12:59:32.347Z,22.15